createdAt,value
2018-07-05T00:01:20.839Z,74.16
2018-07-05T00:04:02.287Z,75.29
2018-07-05T00:06:43.427Z,75.44
2018-07-05T00:09:24.717Z,75.24
2018-07-05T00:12:05.893Z,75.63
2018-07-05T00:14:47.112Z,76.18
2018-07-05T00:17:28.211Z,77.29
2018-07-05T00:20:10.245Z,78.67
2018-07-05T00:22:51.358Z,79.23
2018-07-05T00:25:32.603Z,77.35
2018-07-05T00:28:13.821Z,77.93
2018-07-05T00:30:55.167Z,77.98
2018-07-05T00:33:36.405Z,79.91
2018-07-05T00:36:17.681Z,80.94
2018-07-05T00:39:00.595Z,81.46
2018-07-05T00:41:41.646Z,81.64
2018-07-05T00:44:23.072Z,80.89
2018-07-05T00:47:05.046Z,81.44
2018-07-05T00:49:46.234Z,81.04
2018-07-05T00:52:27.658Z,81.79
2018-07-05T00:55:09.481Z,83.47
2018-07-05T00:57:50.694Z,82.95
2018-07-05T01:00:31.798Z,84.76
2018-07-05T01:03:12.977Z,84.02
2018-07-05T01:05:54.605Z,84.39
2018-07-05T01:08:36.139Z,83.00
2018-07-05T01:11:17.536Z,84.35
2018-07-05T01:13:58.780Z,84.70
2018-07-05T01:16:40.146Z,84.86
2018-07-05T01:19:21.792Z,85.29
2018-07-05T01:22:03.743Z,86.58
2018-07-05T01:24:45.170Z,86.09
2018-07-05T01:27:26.541Z,84.71
2018-07-05T01:30:08.791Z,83.78
2018-07-05T01:32:50.997Z,83.45
2018-07-05T01:35:32.443Z,84.37
2018-07-05T01:38:13.617Z,84.97
2018-07-05T01:40:55.034Z,85.00
2018-07-05T01:43:36.255Z,85.75
2018-07-05T01:46:18.157Z,85.54
2018-07-05T01:49:00.564Z,85.46
2018-07-05T01:51:42.049Z,85.69
2018-07-05T01:54:23.237Z,85.42
2018-07-05T01:57:04.321Z,85.81
2018-07-05T01:59:45.497Z,86.06
2018-07-05T02:02:26.910Z,85.39
2018-07-05T02:05:08.054Z,85.84
2018-07-05T02:07:49.068Z,86.70
2018-07-05T02:10:30.239Z,86.56
2018-07-05T02:13:11.526Z,86.86
2018-07-05T02:15:52.658Z,87.08
2018-07-05T02:18:33.876Z,87.63
2018-07-05T02:21:15.318Z,86.69
2018-07-05T02:23:56.541Z,85.39
2018-07-05T02:26:37.800Z,85.95
2018-07-05T02:29:20.164Z,87.34
2018-07-05T02:32:01.286Z,87.31
2018-07-05T02:34:42.569Z,88.63
2018-07-05T02:37:28.932Z,89.54
2018-07-05T02:40:10.172Z,90.07
2018-07-05T02:42:51.483Z,90.96
2018-07-05T02:45:32.885Z,91.06
2018-07-05T02:48:14.111Z,91.76
2018-07-05T02:50:55.364Z,92.16
2018-07-05T02:53:36.656Z,91.87
2018-07-05T02:56:18.024Z,91.24
2018-07-05T02:58:59.155Z,91.42
2018-07-05T03:01:40.381Z,91.36
2018-07-05T03:04:21.672Z,90.88
2018-07-05T03:07:03.098Z,90.43
2018-07-05T03:09:44.380Z,89.44
2018-07-05T03:12:25.590Z,88.58
2018-07-05T03:15:08.480Z,88.95
2018-07-05T03:17:50.457Z,89.42
2018-07-05T03:20:32.250Z,90.01
2018-07-05T03:23:13.663Z,89.73
2018-07-05T03:25:54.816Z,89.54
2018-07-05T03:28:35.898Z,90.48
2018-07-05T03:31:17.160Z,90.53
2018-07-05T03:33:58.404Z,91.12
2018-07-05T03:36:39.651Z,90.63
2018-07-05T03:39:21.195Z,90.77
2018-07-05T03:42:03.450Z,90.73
2018-07-05T03:44:45.138Z,89.64
2018-07-05T03:47:26.471Z,89.01
2018-07-05T03:50:08.778Z,88.62
2018-07-05T03:52:50.182Z,88.76
2018-07-05T03:55:31.391Z,88.83
2018-07-05T03:58:12.768Z,89.39
2018-07-05T04:00:54.135Z,88.95
2018-07-05T04:03:35.655Z,89.27
2018-07-05T04:06:17.702Z,87.85
2018-07-05T04:08:59.088Z,87.26
2018-07-05T04:11:40.538Z,86.78
2018-07-05T04:14:22.216Z,86.70
2018-07-05T04:17:03.615Z,86.43
2018-07-05T04:19:48.397Z,86.57
2018-07-05T04:22:29.567Z,85.93
2018-07-05T04:25:12.085Z,85.66
2018-07-05T04:27:53.457Z,85.70
2018-07-05T04:30:34.801Z,85.26
2018-07-05T04:33:15.950Z,85.02
2018-07-05T04:35:57.460Z,84.25
2018-07-05T04:38:38.845Z,84.13
2018-07-05T04:41:20.577Z,83.75
2018-07-05T04:44:01.769Z,83.74
2018-07-05T04:46:43.059Z,82.41
2018-07-05T04:49:24.947Z,82.02
2018-07-05T04:52:06.231Z,81.66
2018-07-05T04:54:49.249Z,82.21
2018-07-05T04:57:30.409Z,81.94
2018-07-05T05:00:11.863Z,81.80
2018-07-05T05:02:52.908Z,80.69
2018-07-05T05:05:34.390Z,79.71
2018-07-05T05:08:18.266Z,79.00
2018-07-05T05:11:01.442Z,78.76
2018-07-05T05:13:42.958Z,78.83
2018-07-05T05:16:24.083Z,77.31
2018-07-05T05:19:05.132Z,77.45
2018-07-05T05:21:46.280Z,76.44
2018-07-05T05:24:27.729Z,76.00
2018-07-05T05:27:08.892Z,76.35
2018-07-05T05:29:49.984Z,74.87
2018-07-05T05:32:33.009Z,74.32
2018-07-05T05:35:14.024Z,73.33
2018-07-05T05:37:59.502Z,72.19
2018-07-05T05:40:40.780Z,71.94
2018-07-05T05:48:58.472Z,71.26
2018-07-05T05:51:40.410Z,70.64
2018-07-05T05:54:22.020Z,69.70
2018-07-05T05:57:03.578Z,69.07
2018-07-05T05:59:45.619Z,68.99
2018-07-05T06:02:27.852Z,67.07
2018-07-05T06:05:09.190Z,67.25
2018-07-05T06:07:50.472Z,65.38
2018-07-05T06:10:31.695Z,65.89
2018-07-05T06:13:13.605Z,64.47
2018-07-05T06:15:55.517Z,64.20
2018-07-05T06:18:37.043Z,63.19
2018-07-05T06:21:18.513Z,61.76
2018-07-05T06:24:04.712Z,61.00
2018-07-05T06:26:46.189Z,61.23
2018-07-05T06:29:29.952Z,60.45
2018-07-05T06:32:11.062Z,58.50
2018-07-05T06:34:52.224Z,59.22
2018-07-05T06:37:33.509Z,58.09
2018-07-05T06:40:14.845Z,57.45
2018-07-05T06:42:56.062Z,58.86
2018-07-05T06:45:37.644Z,56.44
2018-07-05T06:48:18.924Z,56.39
2018-07-05T06:51:03.263Z,55.24
2018-07-05T06:53:44.542Z,56.17
2018-07-05T06:56:25.940Z,55.87
2018-07-05T06:59:07.164Z,54.04
2018-07-05T07:01:48.950Z,54.24
2018-07-05T07:04:30.602Z,52.92
2018-07-05T07:07:12.080Z,50.88
2018-07-05T07:09:53.065Z,50.70
2018-07-05T07:12:34.304Z,50.34
2018-07-05T07:15:15.621Z,50.72
2018-07-05T07:17:57.051Z,49.33
2018-07-05T07:20:38.425Z,47.65
2018-07-05T07:23:19.782Z,48.63
2018-07-05T07:26:01.430Z,48.94
2018-07-05T07:28:43.577Z,48.40
2018-07-05T07:31:24.943Z,44.30
2018-07-05T07:34:05.936Z,46.75
2018-07-05T07:36:48.210Z,46.14
2018-07-05T07:39:29.551Z,44.78
2018-07-05T07:41:58.953Z,42.77
2018-07-05T07:44:27.886Z,43.01
2018-07-05T07:46:57.797Z,41.91
2018-07-05T07:49:27.160Z,40.98
2018-07-05T07:51:56.857Z,40.67
2018-07-05T07:54:26.361Z,40.40
2018-07-05T07:56:55.581Z,40.92
2018-07-05T07:59:25.599Z,40.79
2018-07-05T08:01:54.929Z,40.94
2018-07-05T08:04:24.147Z,40.61
2018-07-05T08:06:53.211Z,39.73
2018-07-05T08:09:23.013Z,41.07
2018-07-05T08:11:52.865Z,40.34
2018-07-05T08:14:22.005Z,39.70
2018-07-05T08:16:51.735Z,38.99
2018-07-05T08:19:20.993Z,38.99
2018-07-05T08:21:50.942Z,37.80
2018-07-05T08:24:19.929Z,40.19
2018-07-05T08:26:48.913Z,38.29
2018-07-05T08:29:18.963Z,39.05
2018-07-05T08:31:47.927Z,36.13
2018-07-05T08:34:18.246Z,35.52
2018-07-05T08:36:48.519Z,36.45
2018-07-05T08:39:18.507Z,35.68
2018-07-05T08:41:48.491Z,34.39
2018-07-05T08:44:17.443Z,34.01
2018-07-05T08:46:46.541Z,33.40
2018-07-05T08:49:15.977Z,32.77
2018-07-05T08:51:45.961Z,33.21
2018-07-05T08:54:15.480Z,33.20
2018-07-05T08:56:46.077Z,31.59
2018-07-05T08:59:15.356Z,31.41
2018-07-05T09:01:45.596Z,31.39
2018-07-05T09:04:14.776Z,29.99
2018-07-05T09:06:45.418Z,30.02
2018-07-05T09:09:15.097Z,29.61
2018-07-05T09:11:45.160Z,29.46
2018-07-05T09:14:14.757Z,30.10
2018-07-05T09:16:44.020Z,28.20
2018-07-05T09:19:13.390Z,30.50
2018-07-05T09:21:42.995Z,31.18
2018-07-05T09:24:14.180Z,30.64
2018-07-05T09:26:43.796Z,30.54
2018-07-05T09:29:13.670Z,27.43
2018-07-05T09:31:43.020Z,26.05
2018-07-05T09:34:13.317Z,27.44
2018-07-05T09:36:42.320Z,26.93
2018-07-05T09:41:55.388Z,27.26
2018-07-05T09:44:24.802Z,28.75
2018-07-05T09:46:54.140Z,28.81
2018-07-05T09:49:23.743Z,26.90
2018-07-05T09:51:53.660Z,26.42
2018-07-05T09:54:23.558Z,26.07
2018-07-05T09:56:53.755Z,25.30
2018-07-05T09:59:23.030Z,23.17
2018-07-05T10:01:52.938Z,21.64
2018-07-05T10:04:23.010Z,21.85
2018-07-05T10:06:52.653Z,21.09
2018-07-05T10:09:21.652Z,22.82
2018-07-05T10:11:51.232Z,25.58
2018-07-05T10:14:22.081Z,26.25
2018-07-05T10:16:51.193Z,25.03
2018-07-05T10:19:21.466Z,26.01
2018-07-05T10:21:51.226Z,24.79
2018-07-05T10:24:20.567Z,23.21
2018-07-05T10:26:49.666Z,26.42
2018-07-05T10:29:31.571Z,26.07
2018-07-05T10:32:12.858Z,25.15
2018-07-05T10:34:41.982Z,26.01
2018-07-05T10:37:11.414Z,25.25
2018-07-05T10:39:40.418Z,23.22
2018-07-05T10:42:22.703Z,23.37
2018-07-05T10:45:04.212Z,23.83
2018-07-05T10:47:45.329Z,24.08
2018-07-05T10:50:26.470Z,24.60
2018-07-05T10:53:07.802Z,22.39
2018-07-05T10:55:49.052Z,22.25
2018-07-05T10:58:30.272Z,22.99
2018-07-05T11:01:15.952Z,23.10
2018-07-05T11:03:57.345Z,21.83
2018-07-05T11:06:39.172Z,21.94
2018-07-05T11:09:20.307Z,23.44
2018-07-05T11:12:01.594Z,22.36
2018-07-05T11:14:46.806Z,22.34
2018-07-05T11:17:31.324Z,24.15
2018-07-05T11:20:12.669Z,23.99
2018-07-05T11:22:54.235Z,22.61
2018-07-05T11:25:35.508Z,22.30
2018-07-05T11:28:16.792Z,20.30
2018-07-05T11:30:58.150Z,20.94
2018-07-05T11:33:39.298Z,20.22
2018-07-05T11:36:20.824Z,18.84
2018-07-05T11:39:02.887Z,18.76
2018-07-05T11:41:44.083Z,18.71
2018-07-05T11:44:26.474Z,18.10
2018-07-05T11:47:07.732Z,18.65
2018-07-05T11:49:49.199Z,20.67
2018-07-05T11:52:30.682Z,20.61
2018-07-05T11:55:11.962Z,17.32
2018-07-05T11:57:53.461Z,16.28
2018-07-05T12:00:34.834Z,13.13
2018-07-05T12:03:16.069Z,18.50
2018-07-05T12:05:57.183Z,23.91
2018-07-05T12:08:38.637Z,25.34
2018-07-05T12:11:20.551Z,26.24
2018-07-05T12:14:01.798Z,27.28
2018-07-05T12:16:43.047Z,31.31
2018-07-05T12:19:24.404Z,31.46
2018-07-05T12:22:05.841Z,31.76
2018-07-05T12:24:47.333Z,32.69
2018-07-05T12:27:29.213Z,33.77
2018-07-05T12:30:11.538Z,36.20
2018-07-05T12:32:52.826Z,36.96
2018-07-05T12:35:34.605Z,36.42
2018-07-05T12:38:15.941Z,37.23
2018-07-05T12:40:57.511Z,38.39
2018-07-05T12:43:38.832Z,38.68
2018-07-05T12:46:20.121Z,39.48
2018-07-05T12:49:01.247Z,41.11
2018-07-05T12:51:42.286Z,42.50
2018-07-05T12:54:24.183Z,41.96
2018-07-05T12:57:05.240Z,43.00
2018-07-05T12:59:46.440Z,41.72
2018-07-05T13:02:27.995Z,40.24
2018-07-05T13:05:09.555Z,40.47
2018-07-05T13:07:50.893Z,40.11
2018-07-05T13:10:32.528Z,39.35
2018-07-05T13:13:13.724Z,36.97
2018-07-05T13:15:55.097Z,37.10
2018-07-05T13:18:36.309Z,35.41
2018-07-05T13:21:18.497Z,35.47
2018-07-05T13:24:00.107Z,37.02
2018-07-05T13:26:42.069Z,38.54
2018-07-05T13:29:25.483Z,41.24
2018-07-05T13:32:06.694Z,45.75
2018-07-05T13:34:47.860Z,56.05
2018-07-05T13:37:29.043Z,62.09
2018-07-05T13:40:10.309Z,63.72
2018-07-05T13:42:51.435Z,62.99
2018-07-05T13:45:33.089Z,65.43
2018-07-05T13:48:14.212Z,68.72
2018-07-05T13:50:55.685Z,71.79
2018-07-05T13:53:37.706Z,73.79
2018-07-05T13:56:18.913Z,76.80
2018-07-05T13:58:59.996Z,80.30
2018-07-05T14:01:41.405Z,83.89
2018-07-05T14:04:22.574Z,83.30
2018-07-05T14:07:03.980Z,86.26
2018-07-05T14:09:45.296Z,81.98
2018-07-05T14:12:27.503Z,84.97
2018-07-05T14:15:08.802Z,80.28
2018-07-05T14:17:50.581Z,82.25
2018-07-05T14:20:32.024Z,83.13
2018-07-05T14:23:13.057Z,82.59
2018-07-05T14:25:56.497Z,82.28
2018-07-05T14:28:37.565Z,81.18
2018-07-05T14:31:19.018Z,81.51
2018-07-05T14:34:00.315Z,83.11
2018-07-05T14:36:42.568Z,83.50
2018-07-05T14:39:24.017Z,81.78
2018-07-05T14:42:05.716Z,82.82
2018-07-05T14:44:46.848Z,83.93
2018-07-05T14:47:28.724Z,85.23
2018-07-05T14:50:10.256Z,85.10
2018-07-05T14:52:51.668Z,86.60
2018-07-05T14:55:32.813Z,85.86
2018-07-05T14:58:13.992Z,87.34
2018-07-05T15:00:55.748Z,87.10
2018-07-05T15:03:37.625Z,86.35
2018-07-05T15:06:18.801Z,86.53
2018-07-05T15:09:00.150Z,88.14
2018-07-05T15:11:41.550Z,87.26
2018-07-05T15:14:24.652Z,87.92
2018-07-05T15:17:06.479Z,88.20
2018-07-05T15:19:47.816Z,89.35
2018-07-05T15:22:30.262Z,90.84
2018-07-05T15:25:11.520Z,90.66
2018-07-05T15:27:52.650Z,92.26
2018-07-05T15:30:33.971Z,91.74
2018-07-05T15:33:27.220Z,93.66
2018-07-05T15:36:14.602Z,93.80
2018-07-05T15:38:55.914Z,93.85
2018-07-05T15:41:37.300Z,92.99
2018-07-05T15:44:19.213Z,93.33
2018-07-05T15:49:47.802Z,93.27
2018-07-05T15:52:30.428Z,94.20
2018-07-05T15:55:12.510Z,94.45
2018-07-05T15:57:54.337Z,94.30
2018-07-05T16:00:36.030Z,92.75
2018-07-05T16:03:24.846Z,92.09
2018-07-05T16:06:06.445Z,90.65
2018-07-05T16:08:48.967Z,90.59
2018-07-05T16:11:31.176Z,93.28
2018-07-05T16:14:13.024Z,93.92
2018-07-05T16:16:57.552Z,93.34
2018-07-05T16:19:40.807Z,89.52
2018-07-05T16:22:22.630Z,92.47
2018-07-05T16:25:04.769Z,95.01
2018-07-05T16:27:46.954Z,94.92
2018-07-05T16:30:28.447Z,95.13
2018-07-05T16:33:09.949Z,94.57
2018-07-05T16:35:51.525Z,92.37
2018-07-05T16:38:32.679Z,94.07
2018-07-05T16:41:13.946Z,94.09
2018-07-05T16:43:56.129Z,94.18
2018-07-05T16:46:37.601Z,94.20
2018-07-05T16:49:18.920Z,93.87
2018-07-05T16:52:00.593Z,93.44
2018-07-05T16:54:41.931Z,92.58
2018-07-05T16:57:23.069Z,93.01
2018-07-05T17:00:04.844Z,93.88
2018-07-05T17:02:46.778Z,93.16
2018-07-05T17:05:28.060Z,93.51
2018-07-05T17:08:10.290Z,93.12
2018-07-05T17:10:51.405Z,93.50
2018-07-05T17:13:33.029Z,94.09
2018-07-05T17:16:15.052Z,93.20
2018-07-05T17:18:56.307Z,92.62
2018-07-05T17:21:38.475Z,93.62
2018-07-05T17:24:19.652Z,92.93
2018-07-05T17:27:00.832Z,93.93
2018-07-05T17:29:42.107Z,93.79
2018-07-05T17:32:23.246Z,92.22
2018-07-05T17:35:05.358Z,92.38
2018-07-05T17:37:46.484Z,92.81
2018-07-05T17:40:28.521Z,93.00
2018-07-05T17:43:09.851Z,93.31
2018-07-05T17:45:51.840Z,93.09
2018-07-05T17:48:33.213Z,92.12
2018-07-05T17:51:16.212Z,92.37
2018-07-05T17:53:57.520Z,92.74
2018-07-05T17:56:39.066Z,92.56
2018-07-05T17:59:20.147Z,93.29
2018-07-05T18:02:02.405Z,91.92
2018-07-05T18:04:45.091Z,93.05
2018-07-05T18:07:26.776Z,93.42
2018-07-05T18:10:08.348Z,92.98
2018-07-05T18:12:49.478Z,93.45
2018-07-05T18:15:30.913Z,94.67
2018-07-05T18:18:12.312Z,93.40
2018-07-05T18:20:53.650Z,94.76
2018-07-05T18:23:35.050Z,95.34
2018-07-05T18:26:16.800Z,94.49
2018-07-05T18:28:58.200Z,95.13
2018-07-05T18:31:39.468Z,94.67
2018-07-05T18:34:21.286Z,95.11
2018-07-05T18:37:02.836Z,95.18
2018-07-05T18:39:44.156Z,95.57
2018-07-05T18:42:25.378Z,96.50
2018-07-05T18:45:06.620Z,96.41
2018-07-05T18:47:47.808Z,96.22
2018-07-05T18:50:28.858Z,97.57
2018-07-05T18:53:09.986Z,97.61
2018-07-05T18:55:51.297Z,98.20
2018-07-05T18:58:32.559Z,98.86
2018-07-05T19:01:14.070Z,98.02
2018-07-05T19:03:55.528Z,98.33
2018-07-05T19:06:37.182Z,98.03
2018-07-05T19:09:19.814Z,98.07
2018-07-05T19:12:01.330Z,98.54
2018-07-05T19:14:42.679Z,98.10
2018-07-05T19:17:24.072Z,98.85
2018-07-05T19:20:05.403Z,98.25
2018-07-05T19:22:47.512Z,99.28
2018-07-05T19:25:28.729Z,98.67
2018-07-05T19:28:10.354Z,98.93
2018-07-05T19:30:52.019Z,99.18
2018-07-05T19:33:33.286Z,99.42
2018-07-05T19:36:15.958Z,99.58
2018-07-05T19:38:57.744Z,99.08
2018-07-05T19:41:39.034Z,98.82
2018-07-05T19:44:20.258Z,98.95
2018-07-05T19:47:01.586Z,98.66
2018-07-05T19:49:42.815Z,99.11
2018-07-05T19:52:23.967Z,99.38
2018-07-05T19:55:05.235Z,99.18
2018-07-05T19:57:46.284Z,99.20
2018-07-05T20:00:27.771Z,98.70
2018-07-05T20:03:09.154Z,99.15
2018-07-05T20:05:50.369Z,98.90
2018-07-05T20:08:33.803Z,98.93
2018-07-05T20:11:15.528Z,99.37
2018-07-05T20:13:57.068Z,98.85
2018-07-05T20:16:38.383Z,99.10
2018-07-05T20:19:20.543Z,98.79
2018-07-05T20:22:02.474Z,99.54
2018-07-05T20:24:43.642Z,99.63
2018-07-05T20:27:25.575Z,99.84
2018-07-05T20:30:16.432Z,98.84
2018-07-05T20:32:59.050Z,99.53
2018-07-05T20:35:40.499Z,99.64
2018-07-05T20:38:22.212Z,98.98
2018-07-05T20:41:03.433Z,99.69
2018-07-05T20:43:45.513Z,99.82
2018-07-05T20:46:27.256Z,100.00
2018-07-05T20:49:08.654Z,100.00
2018-07-05T20:51:50.495Z,99.37
2018-07-05T20:54:31.697Z,100.00
2018-07-05T20:57:12.973Z,99.00
2018-07-05T20:59:54.587Z,99.74
2018-07-05T21:02:35.880Z,99.53
2018-07-05T21:05:17.182Z,99.56
2018-07-05T21:07:59.076Z,98.91
2018-07-05T21:10:40.396Z,99.03
2018-07-05T21:13:22.915Z,99.47
2018-07-05T21:16:04.902Z,98.57
2018-07-05T21:18:46.135Z,98.91
2018-07-05T21:21:27.463Z,98.61
2018-07-05T21:24:09.017Z,99.28
2018-07-05T21:26:50.165Z,98.91
2018-07-05T21:29:31.608Z,98.30
2018-07-05T21:32:13.818Z,98.54
2018-07-05T21:34:55.729Z,98.72
2018-07-05T21:37:37.616Z,98.76
2018-07-05T21:40:18.739Z,97.78
2018-07-05T21:43:00.682Z,97.87
2018-07-05T21:45:42.328Z,97.28
2018-07-05T21:48:23.873Z,97.38
2018-07-05T21:51:06.142Z,97.46
2018-07-05T21:53:47.934Z,97.68
2018-07-05T21:56:29.171Z,96.59
2018-07-05T21:59:10.620Z,97.86
2018-07-05T22:01:52.233Z,97.78
2018-07-05T22:04:33.591Z,96.62
2018-07-05T22:07:15.937Z,97.08
2018-07-05T22:09:57.504Z,97.32
2018-07-05T22:12:39.001Z,97.92
2018-07-05T22:15:21.982Z,97.44
2018-07-05T22:18:13.401Z,97.61
2018-07-05T22:21:01.642Z,97.89
2018-07-05T22:25:53.063Z,97.93
2018-07-05T22:28:39.399Z,98.80
2018-07-05T22:31:25.718Z,99.02
2018-07-05T22:34:07.044Z,98.35
2018-07-05T22:36:48.210Z,98.50
2018-07-05T22:39:29.504Z,98.36
2018-07-05T22:42:10.735Z,98.95
2018-07-05T22:44:52.585Z,98.68
2018-07-05T22:47:34.253Z,99.35
2018-07-05T22:50:16.606Z,97.83
2018-07-05T22:52:58.293Z,98.82
2018-07-05T22:55:40.305Z,98.53
2018-07-05T22:58:22.409Z,99.11
2018-07-05T23:01:03.629Z,98.47
2018-07-05T23:03:45.078Z,98.33
2018-07-05T23:06:26.397Z,98.21
2018-07-05T23:09:09.348Z,98.85
2018-07-05T23:11:50.487Z,99.06
2018-07-05T23:14:32.426Z,99.14
2018-07-05T23:17:13.806Z,99.04
2018-07-05T23:19:56.602Z,99.88
2018-07-05T23:22:37.862Z,99.81
2018-07-05T23:25:19.802Z,100.00
2018-07-05T23:28:01.108Z,99.96
2018-07-05T23:30:44.786Z,100.00
2018-07-05T23:33:29.143Z,100.00
2018-07-05T23:36:10.377Z,100.00
2018-07-05T23:38:52.298Z,100.00
2018-07-05T23:41:33.541Z,100.00
2018-07-05T23:44:15.420Z,100.00
2018-07-05T23:46:57.091Z,100.00
2018-07-05T23:49:38.622Z,100.00
2018-07-05T23:52:19.727Z,99.59
2018-07-05T23:55:00.996Z,99.57
2018-07-05T23:57:43.261Z,99.86
